createdAt,value
2022-12-01T00:01:20.443Z,-2.69
2022-12-01T00:03:48.093Z,-2.69
2022-12-01T00:06:18.220Z,-2.83
2022-12-01T00:09:05.985Z,-2.83
2022-12-01T00:11:34.706Z,-3.15
2022-12-01T00:14:01.696Z,-3.20
2022-12-01T00:16:29.368Z,-3.09
2022-12-01T00:18:57.053Z,-3.31
2022-12-01T00:21:25.995Z,-3.20
2022-12-01T00:23:55.174Z,-3.48
2022-12-01T00:26:22.854Z,-3.37
2022-12-01T00:28:51.961Z,-3.54
2022-12-01T00:31:20.193Z,-3.46
2022-12-01T00:33:47.402Z,-3.52
2022-12-01T00:36:14.577Z,-3.48
2022-12-01T00:38:41.730Z,-3.44
2022-12-01T00:41:09.363Z,-3.55
2022-12-01T00:43:36.883Z,-3.55
2022-12-01T00:46:04.308Z,-3.62
2022-12-01T00:48:31.542Z,-3.62
2022-12-01T00:50:58.607Z,-3.77
2022-12-01T00:53:25.828Z,-3.81
2022-12-01T00:55:56.231Z,-3.92
2022-12-01T00:58:24.412Z,-4.10
2022-12-01T01:01:02.002Z,-4.03
2022-12-01T01:03:30.380Z,-4.02
2022-12-01T01:06:03.482Z,-4.08
2022-12-01T01:08:30.580Z,-4.15
2022-12-01T01:10:59.754Z,-4.04
2022-12-01T01:13:26.707Z,-4.06
2022-12-01T01:16:02.026Z,-4.06
2022-12-01T01:18:29.715Z,-4.09
2022-12-01T01:21:12.608Z,-4.12
2022-12-01T01:23:40.001Z,-4.16
2022-12-01T01:26:12.919Z,-4.25
2022-12-01T01:28:41.762Z,-4.29
2022-12-01T01:31:11.596Z,-4.32
2022-12-01T01:33:38.837Z,-4.35
2022-12-01T01:36:06.326Z,-4.36
2022-12-01T01:38:33.927Z,-4.38
2022-12-01T01:41:01.094Z,-4.39
2022-12-01T01:43:50.654Z,-4.39
2022-12-01T01:46:18.007Z,-4.43
2022-12-01T01:49:04.888Z,-4.46
2022-12-01T01:51:43.752Z,-4.53
2022-12-01T01:54:25.412Z,-4.59
2022-12-01T01:56:53.751Z,-4.65
2022-12-01T01:59:25.255Z,-4.64
2022-12-01T02:02:06.764Z,-4.74
2022-12-01T02:04:41.071Z,-4.76
2022-12-01T02:07:10.314Z,-4.84
2022-12-01T02:09:37.383Z,-4.99
2022-12-01T02:12:25.225Z,-4.88
2022-12-01T02:15:29.132Z,-5.03
2022-12-01T02:18:07.884Z,-5.10
2022-12-01T02:20:57.459Z,-5.06
2022-12-01T02:23:55.366Z,-5.16
2022-12-01T02:26:46.705Z,-5.21
2022-12-01T02:29:49.104Z,-5.08
2022-12-01T02:32:23.448Z,-5.09
2022-12-01T02:35:03.979Z,-5.05
2022-12-01T02:38:10.232Z,-4.97
2022-12-01T02:40:47.428Z,-5.00
2022-12-01T02:43:28.018Z,-5.03
2022-12-01T02:46:05.977Z,-5.23
2022-12-01T02:48:35.471Z,-5.19
2022-12-01T02:51:13.388Z,-5.14
2022-12-01T02:53:41.026Z,-5.14
2022-12-01T02:56:12.537Z,-5.15
2022-12-01T02:58:39.723Z,-5.19
2022-12-01T03:01:42.560Z,-5.19
2022-12-01T03:04:21.792Z,-5.22
2022-12-01T03:07:10.390Z,-5.33
2022-12-01T03:09:55.578Z,-5.37
2022-12-01T03:13:21.306Z,-5.41
2022-12-01T03:16:00.872Z,-5.50
2022-12-01T03:18:40.246Z,-5.55
2022-12-01T03:21:22.475Z,-5.60
2022-12-01T03:23:56.027Z,-5.69
2022-12-01T03:26:25.334Z,-5.70
2022-12-01T03:28:59.168Z,-5.72
2022-12-01T03:31:32.517Z,-5.76
2022-12-01T03:34:05.451Z,-5.78
2022-12-01T03:36:42.623Z,-5.79
2022-12-01T03:39:15.279Z,-5.80
2022-12-01T03:41:44.305Z,-5.89
2022-12-01T03:44:20.983Z,-5.89
2022-12-01T03:46:54.425Z,-5.90
2022-12-01T03:49:25.727Z,-5.93
2022-12-01T03:51:58.879Z,-6.01
2022-12-01T03:54:54.074Z,-5.98
2022-12-01T03:57:33.152Z,-6.00
2022-12-01T04:00:00.832Z,-6.07
2022-12-01T04:02:29.329Z,-6.05
2022-12-01T04:04:56.676Z,-6.07
2022-12-01T04:07:24.125Z,-6.08
2022-12-01T04:09:51.437Z,-6.11
2022-12-01T04:12:31.272Z,-6.14
2022-12-01T04:15:10.387Z,-6.15
2022-12-01T04:17:38.101Z,-6.18
2022-12-01T04:20:07.179Z,-6.29
2022-12-01T04:22:34.714Z,-6.23
2022-12-01T04:25:02.137Z,-6.26
2022-12-01T04:27:29.435Z,-6.48
2022-12-01T04:29:56.833Z,-6.61
2022-12-01T04:32:24.419Z,-6.51
2022-12-01T04:34:51.591Z,-6.54
2022-12-01T04:37:19.370Z,-6.60
2022-12-01T04:39:47.198Z,-6.52
2022-12-01T04:42:15.120Z,-6.59
2022-12-01T04:44:42.323Z,-6.50
2022-12-01T04:47:09.525Z,-6.30
2022-12-01T04:49:37.422Z,-6.18
2022-12-01T04:52:05.494Z,-6.12
2022-12-01T04:54:32.842Z,-6.35
2022-12-01T04:57:00.357Z,-6.18
2022-12-01T04:59:27.512Z,-6.10
2022-12-01T05:01:54.821Z,-6.07
2022-12-01T05:04:22.158Z,-6.27
2022-12-01T05:06:49.690Z,-6.44
2022-12-01T05:09:17.994Z,-6.37
2022-12-01T05:11:46.089Z,-6.23
2022-12-01T05:14:13.732Z,-6.34
2022-12-01T05:16:41.479Z,-6.33
2022-12-01T05:19:27.994Z,-6.24
2022-12-01T05:21:56.007Z,-6.16
2022-12-01T05:24:23.776Z,-6.09
2022-12-01T05:26:51.814Z,-6.02
2022-12-01T05:29:19.943Z,-6.01
2022-12-01T05:31:47.461Z,-6.00
2022-12-01T05:34:16.196Z,-6.00
2022-12-01T05:36:43.741Z,-6.00
2022-12-01T05:39:11.177Z,-6.08
2022-12-01T05:41:38.987Z,-6.20
2022-12-01T05:44:07.812Z,-6.31
2022-12-01T05:46:36.140Z,-6.30
2022-12-01T05:49:03.906Z,-6.33
2022-12-01T05:51:31.354Z,-6.29
2022-12-01T05:54:02.876Z,-6.10
2022-12-01T05:56:30.751Z,-6.00
2022-12-01T05:58:58.071Z,-5.92
2022-12-01T06:01:25.907Z,-5.84
2022-12-01T06:03:55.128Z,-5.80
2022-12-01T06:06:22.772Z,-5.74
2022-12-01T06:08:49.986Z,-5.60
2022-12-01T06:11:17.593Z,-5.47
2022-12-01T06:13:45.224Z,-5.31
2022-12-01T06:16:13.016Z,-5.18
2022-12-01T06:18:40.791Z,-5.06
2022-12-01T06:21:08.855Z,-4.83
2022-12-01T06:23:36.449Z,-4.65
2022-12-01T06:26:03.840Z,-4.47
2022-12-01T06:28:31.153Z,-4.31
2022-12-01T06:31:03.117Z,-4.16
2022-12-01T06:33:32.094Z,-4.02
2022-12-01T06:36:01.104Z,-3.85
2022-12-01T06:38:34.887Z,-3.70
2022-12-01T06:41:04.806Z,-3.54
2022-12-01T06:43:36.819Z,-3.44
2022-12-01T06:46:06.180Z,-3.26
2022-12-01T06:48:35.805Z,-3.22
2022-12-01T06:51:05.035Z,-3.32
2022-12-01T06:53:33.450Z,-3.31
2022-12-01T09:00:13.373Z,7.13
2022-12-01T09:02:39.580Z,7.70
2022-12-01T09:05:05.919Z,8.25
2022-12-01T09:08:55.203Z,9.21
2022-12-01T09:11:23.209Z,9.47
2022-12-01T09:13:54.586Z,9.83
2022-12-01T09:16:23.188Z,10.17
2022-12-01T09:18:50.765Z,10.43
2022-12-01T09:21:20.088Z,10.84
2022-12-01T09:23:48.458Z,11.29
2022-12-01T09:26:19.198Z,11.62
2022-12-01T09:28:49.283Z,11.72
2022-12-01T09:31:18.723Z,12.00
2022-12-01T09:33:46.973Z,11.97
2022-12-01T09:36:14.459Z,12.41
2022-12-01T09:38:41.884Z,12.49
2022-12-01T09:41:18.099Z,12.61
2022-12-01T09:43:58.957Z,12.37
2022-12-01T09:46:37.341Z,12.24
2022-12-01T09:49:09.212Z,12.19
2022-12-01T09:51:38.201Z,12.40
2022-12-01T09:54:09.620Z,12.44
2022-12-01T09:56:45.246Z,12.66
2022-12-01T09:59:22.723Z,13.07
2022-12-01T10:02:00.463Z,13.33
2022-12-01T10:04:43.612Z,13.26
2022-12-01T10:07:25.147Z,13.41
2022-12-01T13:12:00.982Z,-3.66
2022-12-01T13:14:44.954Z,-3.63
2022-12-01T13:17:18.464Z,-3.59
2022-12-01T13:19:49.325Z,-3.47
2022-12-01T13:22:20.037Z,-3.35
2022-12-01T13:24:48.360Z,-3.22
2022-12-01T13:27:27.690Z,-3.09
2022-12-01T13:29:57.805Z,-2.99
2022-12-01T13:32:41.766Z,-2.91
2022-12-01T13:35:38.156Z,-2.90
2022-12-01T13:38:25.731Z,-2.84
2022-12-01T13:41:14.075Z,-2.86
2022-12-01T13:44:05.262Z,-2.86
2022-12-01T13:46:51.836Z,-2.90
2022-12-01T13:49:45.481Z,-2.97
2022-12-01T13:52:23.498Z,-3.00
2022-12-01T13:55:02.235Z,-3.03
2022-12-01T13:57:33.845Z,-3.12
2022-12-01T14:00:04.118Z,-3.23
2022-12-01T14:02:40.234Z,-3.26
2022-12-01T14:05:25.314Z,-3.37
2022-12-01T14:07:55.782Z,-3.38
2022-12-01T14:10:33.779Z,-3.48
2022-12-01T14:13:06.601Z,-3.53
2022-12-01T14:15:47.396Z,-3.57
2022-12-01T14:18:33.435Z,-3.60
2022-12-01T14:21:05.168Z,-3.67
2022-12-01T14:23:36.744Z,-3.69
2022-12-01T14:26:23.722Z,-3.73
2022-12-01T14:29:00.987Z,-3.80
2022-12-01T14:31:35.251Z,-3.90
2022-12-01T14:34:18.798Z,-3.93
2022-12-01T14:36:59.023Z,-3.97
2022-12-01T14:39:35.966Z,-4.05
2022-12-01T14:42:13.288Z,-4.04
2022-12-01T14:44:49.071Z,-4.07
2022-12-01T14:47:34.471Z,-4.16
2022-12-01T14:50:13.455Z,-4.16
2022-12-01T14:52:46.563Z,-4.14
2022-12-01T14:55:25.648Z,-4.14
2022-12-01T14:58:05.249Z,-4.05
2022-12-01T15:00:37.582Z,-4.00
2022-12-01T15:03:13.690Z,-3.92
2022-12-01T15:05:44.077Z,-3.86
2022-12-01T15:08:45.819Z,-3.86
2022-12-01T15:11:29.313Z,-3.79
2022-12-01T15:13:57.907Z,-3.67
2022-12-01T15:16:32.701Z,-3.62
2022-12-01T15:19:00.198Z,-3.62
2022-12-01T15:21:32.116Z,-3.50
2022-12-01T15:24:02.651Z,-3.46
2022-12-01T15:26:46.779Z,-3.41
2022-12-01T15:29:16.042Z,-3.42
2022-12-01T15:31:46.830Z,-3.37
2022-12-01T15:34:17.548Z,-3.31
2022-12-01T15:36:45.666Z,-3.24
2022-12-01T15:39:29.925Z,-3.19
2022-12-01T15:41:57.701Z,-3.14
2022-12-01T15:44:35.272Z,-3.07
2022-12-01T15:47:40.174Z,-3.09
2022-12-01T15:50:07.807Z,-3.09
2022-12-01T15:52:45.133Z,-3.12
2022-12-01T15:55:25.701Z,-3.12
2022-12-01T15:57:53.162Z,-3.19
2022-12-01T16:00:22.522Z,-3.05
2022-12-01T16:02:52.943Z,-3.08
2022-12-01T16:05:25.248Z,-3.09
2022-12-01T16:10:40.334Z,-3.10
2022-12-01T16:13:40.600Z,-3.08
2022-12-01T16:16:43.435Z,-3.15
2022-12-01T16:19:10.847Z,-3.07
2022-12-01T16:22:11.024Z,-3.04
2022-12-01T16:24:47.246Z,-3.09
2022-12-01T16:27:28.115Z,-3.05
2022-12-01T16:30:06.553Z,-3.06
2022-12-01T16:32:34.025Z,-3.12
2022-12-01T16:35:02.047Z,-3.05
2022-12-01T16:37:29.938Z,-3.06
2022-12-01T16:39:58.636Z,-3.16
2022-12-01T16:42:25.839Z,-3.29
2022-12-01T16:44:53.519Z,-3.32
2022-12-01T16:47:25.344Z,-3.24
2022-12-01T16:49:53.516Z,-3.24
2022-12-01T16:52:44.331Z,-3.36
2022-12-01T16:55:23.957Z,-3.25
2022-12-01T16:57:51.906Z,-3.25
2022-12-01T17:00:19.638Z,-3.19
2022-12-01T17:02:46.854Z,-3.14
2022-12-01T17:05:14.207Z,-3.16
2022-12-01T17:07:42.235Z,-3.20
2022-12-01T17:10:10.417Z,-3.25
2022-12-01T17:12:37.764Z,-3.25
2022-12-01T17:15:05.642Z,-3.25
2022-12-01T17:17:33.066Z,-3.29
2022-12-01T17:20:00.358Z,-3.27
2022-12-01T17:22:28.022Z,-3.35
2022-12-01T17:24:55.924Z,-3.30
2022-12-01T17:27:24.972Z,-3.31
2022-12-01T17:29:52.920Z,-3.20
2022-12-01T17:32:20.205Z,-3.14
2022-12-01T17:34:48.081Z,-3.07
2022-12-01T17:37:20.687Z,-3.01
2022-12-01T17:39:48.721Z,-2.94
2022-12-01T17:42:16.979Z,-2.88
2022-12-01T17:44:44.408Z,-2.97
2022-12-01T17:47:12.142Z,-2.81
2022-12-01T17:49:39.532Z,-2.77
2022-12-01T17:52:07.373Z,-2.73
2022-12-01T17:54:34.520Z,-2.76
2022-12-01T17:57:01.707Z,-2.76
2022-12-01T22:25:19.721Z,-5.95
2022-12-01T22:27:45.858Z,-5.81
2022-12-01T22:30:20.632Z,-5.63
2022-12-01T22:33:01.091Z,-5.42
2022-12-01T22:35:49.474Z,-5.24
2022-12-01T22:38:35.844Z,-5.04
2022-12-01T22:41:07.041Z,-4.94
2022-12-01T22:43:56.559Z,-4.80
2022-12-01T22:46:34.351Z,-4.77
2022-12-01T22:49:10.633Z,-4.63
2022-12-01T22:51:43.184Z,-4.54
2022-12-01T22:54:10.394Z,-4.58
2022-12-01T22:56:40.434Z,-4.60
2022-12-01T22:59:22.523Z,-4.53
2022-12-01T23:01:58.537Z,-4.50
2022-12-01T23:04:26.705Z,-4.49
2022-12-01T23:07:03.806Z,-4.47
2022-12-01T23:10:00.091Z,-4.51
2022-12-01T23:12:30.221Z,-4.48
2022-12-01T23:15:16.874Z,-4.43
2022-12-01T23:17:43.889Z,-4.45
2022-12-01T23:20:11.007Z,-4.50
2022-12-01T23:22:38.758Z,-4.55
2022-12-01T23:25:14.610Z,-4.40
2022-12-01T23:27:42.809Z,-4.45
2022-12-01T23:30:11.574Z,-4.43
2022-12-01T23:32:39.115Z,-4.29
2022-12-01T23:35:10.115Z,-4.36
2022-12-01T23:37:39.822Z,-4.36
2022-12-01T23:40:18.657Z,-4.28
2022-12-01T23:42:45.950Z,-4.30
2022-12-01T23:45:25.567Z,-4.36
2022-12-01T23:47:54.587Z,-4.37
2022-12-01T23:50:30.260Z,-4.39
2022-12-01T23:52:57.626Z,-4.49
2022-12-01T23:55:29.920Z,-4.39
2022-12-01T23:57:58.737Z,-4.40
